Time;durP1;ratioP1;P1;durP2;ratioP2;P2;SDS_P1;SDS_P2;PMS_P1;PMS_P2;Temp;Humidity;BMP_temperature;BMP_pressure;BME280_temperature;BME280_humidity;BME280_pressure;Samples;Min_cycle;Max_cycle;Signal;HPM_P1;HPM_P2
2022/07/11 00:00:46;;;;;;;5.43;1.93;;;18.10;1.00;;;;;;5057227;28;20239;-77
2022/07/11 00:05:55;;;;;;;4.47;1.70;;;18.10;1.00;;;;;;5016259;28;20212;-93
2022/07/11 00:08:21;;;;;;;4.00;1.93;;;18.00;99.90;;;;;;4998846;28;20259;-93
2022/07/11 00:10:47;;;;;;;3.97;1.70;;;18.20;99.90;;;;;;4999268;28;20235;-93
2022/07/11 00:13:12;;;;;;;4.37;1.97;;;18.10;99.90;;;;;;5016811;28;20239;-93
2022/07/11 00:15:38;;;;;;;2.23;1.40;;;18.20;1.00;;;;;;4999402;28;20188;-93
2022/07/11 00:18:03;;;;;;;6.67;1.70;;;18.10;1.00;;;;;;5042120;22;20223;-76
2022/07/11 00:20:29;;;;;;;4.33;1.87;;;17.90;1.00;;;;;;5033059;28;20245;-77
2022/07/11 00:22:54;;;;;;;8.13;1.87;;;17.90;99.90;;;;;;5015273;28;20706;-78
2022/07/11 00:25:20;;;;;;;4.73;1.57;;;17.80;47.70;;;;;;5033021;28;20206;-77
2022/07/11 00:27:46;;;;;;;2.87;1.57;;;17.80;1.00;;;;;;5033092;28;20226;-76
2022/07/11 00:30:12;;;;;;;5.47;1.73;;;17.70;1.00;;;;;;5033153;28;20204;-76
2022/07/11 00:32:37;;;;;;;5.63;1.90;;;17.70;1.00;;;;;;5015044;28;20662;-76
2022/07/11 00:35:03;;;;;;;3.07;1.73;;;17.70;99.90;;;;;;5032789;28;20197;-75
2022/07/11 00:37:29;;;;;;;4.37;2.03;;;17.60;99.90;;;;;;5033590;28;20243;-79
2022/07/11 00:39:54;;;;;;;4.70;1.80;;;17.60;99.90;;;;;;5035365;28;20251;-78
2022/07/11 00:42:20;;;;;;;2.83;1.60;;;17.50;1.00;;;;;;5033483;28;20180;-78
2022/07/11 00:44:46;;;;;;;4.20;1.93;;;17.50;99.90;;;;;;5035573;28;20200;-78
2022/07/11 00:47:11;;;;;;;3.77;2.00;;;17.50;99.90;;;;;;5016059;28;20212;-76
2022/07/11 00:49:37;;;;;;;2.37;1.60;;;17.40;99.90;;;;;;5032830;28;20267;-76
2022/07/11 00:52:02;;;;;;;4.40;1.90;;;17.40;99.90;;;;;;5015282;28;20212;-76
2022/07/11 00:54:29;;;;;;;3.77;1.70;;;17.30;99.90;;;;;;5032572;28;20288;-76
2022/07/11 00:56:55;;;;;;;3.70;1.80;;;17.30;99.90;;;;;;5033169;28;20169;-77
2022/07/11 00:59:21;;;;;;;5.87;2.03;;;17.30;99.90;;;;;;5032847;28;20199;-76
2022/07/11 01:01:47;;;;;;;3.70;1.40;;;17.20;99.90;;;;;;5033146;28;20176;-76
2022/07/11 01:04:12;;;;;;;2.87;1.80;;;17.20;99.90;;;;;;5032638;28;20685;-77
2022/07/11 01:06:38;;;;;;;4.83;1.93;;;17.10;99.90;;;;;;5015087;28;20177;-77
2022/07/11 01:09:03;;;;;;;3.00;1.47;;;17.10;99.90;;;;;;5032634;28;20180;-76
2022/07/11 01:11:29;;;;;;;4.30;1.67;;;17.10;99.90;;;;;;5033009;28;20255;-77
2022/07/11 01:13:55;;;;;;;2.43;1.47;;;17.10;99.90;;;;;;5014753;28;20302;-77
2022/07/11 01:16:22;;;;;;;2.27;1.40;;;17.00;99.90;;;;;;5032889;28;20254;-77
2022/07/11 01:18:56;;;;;;;2.90;1.83;;;17.00;99.90;;;;;;5014911;28;20192;-76
2022/07/11 01:21:40;;;;;;;4.40;1.83;;;16.90;99.90;;;;;;5016804;28;20226;-77
2022/07/11 01:24:07;;;;;;;3.73;1.83;;;16.80;99.90;;;;;;5036207;28;20192;-77
2022/07/11 01:26:34;;;;;;;3.80;1.60;;;16.70;99.90;;;;;;5036483;28;20622;-76
2022/07/11 01:29:11;;;;;;;3.33;1.80;;;16.70;99.90;;;;;;5036141;28;20259;-76
2022/07/11 01:31:42;;;;;;;7.87;2.17;;;16.70;99.90;;;;;;5036066;28;20206;-76
2022/07/11 01:34:08;;;;;;;1.90;1.50;;;16.70;99.90;;;;;;5035971;28;20274;-76
2022/07/11 01:36:33;;;;;;;3.70;1.50;;;16.70;99.90;;;;;;5036074;28;20172;-76
2022/07/11 01:38:59;;;;;;;4.17;1.60;;;16.70;99.90;;;;;;5036144;28;20584;-76
2022/07/11 01:41:25;;;;;;;3.20;1.90;;;16.70;99.90;;;;;;5035911;28;20184;-76
2022/07/11 01:43:51;;;;;;;3.50;1.73;;;16.60;99.90;;;;;;5018121;28;20693;-76
2022/07/11 01:46:17;;;;;;;4.10;1.70;;;16.60;99.90;;;;;;5035965;28;20172;-76
2022/07/11 01:48:43;;;;;;;4.60;1.50;;;16.60;99.90;;;;;;5018234;28;20184;-77
2022/07/11 01:51:09;;;;;;;2.97;1.30;;;16.60;99.90;;;;;;5035721;28;20263;-76
2022/07/11 01:53:35;;;;;;;2.27;1.53;;;16.60;99.90;;;;;;5035890;28;20222;-77
2022/07/11 01:56:00;;;;;;;7.07;1.70;;;16.60;99.90;;;;;;5018009;28;20178;-76
2022/07/11 01:58:26;;;;;;;3.07;1.80;;;16.60;99.90;;;;;;5035739;28;20179;-76
2022/07/11 02:00:51;;;;;;;3.40;1.40;;;16.60;99.90;;;;;;5035747;28;20176;-77
2022/07/11 02:03:17;;;;;;;3.33;1.60;;;16.60;99.90;;;;;;5017872;28;20176;-78
2022/07/11 02:05:42;;;;;;;4.23;1.80;;;16.70;99.90;;;;;;5035787;28;20184;-77
2022/07/11 02:08:11;;;;;;;2.53;1.63;;;16.60;99.90;;;;;;5035914;28;20180;-77
2022/07/11 02:10:39;;;;;;;3.13;1.67;;;16.70;99.90;;;;;;5035751;28;20203;-77
2022/07/11 02:13:04;;;;;;;2.43;1.93;;;16.70;99.90;;;;;;5017492;28;20298;-77
2022/07/11 02:15:30;;;;;;;3.50;1.40;;;16.70;99.90;;;;;;5035567;28;20279;-76
2022/07/11 02:17:56;;;;;;;5.20;2.10;;;16.80;99.90;;;;;;5017373;28;20200;-76
2022/07/11 02:20:24;;;;;;;4.20;1.77;;;16.70;99.90;;;;;;5036092;28;20242;-76
2022/07/11 02:22:50;;;;;;;4.60;1.70;;;16.80;99.90;;;;;;5035464;28;20582;-76
2022/07/11 02:25:16;;;;;;;3.30;1.70;;;16.70;99.90;;;;;;5035457;28;20192;-76
2022/07/11 02:27:42;;;;;;;5.90;2.10;;;16.70;99.90;;;;;;5034841;28;20187;-76
2022/07/11 02:30:08;;;;;;;4.07;2.00;;;16.80;99.90;;;;;;5017006;28;20181;-76
2022/07/11 02:32:34;;;;;;;5.10;2.10;;;16.80;99.90;;;;;;5016613;28;20259;-76
2022/07/11 02:35:00;;;;;;;4.23;1.50;;;16.80;99.90;;;;;;5034631;28;20196;-77
2022/07/11 02:37:25;;;;;;;3.90;1.70;;;16.90;99.90;;;;;;5016943;28;20180;-77
2022/07/11 02:39:51;;;;;;;2.53;1.37;;;16.90;99.90;;;;;;5016978;28;20592;-76
2022/07/11 02:42:18;;;;;;;3.17;1.90;;;16.90;99.90;;;;;;5016948;28;20184;-76
2022/07/11 02:44:44;;;;;;;5.43;1.97;;;16.90;99.90;;;;;;5034514;28;20188;-76
2022/07/11 02:47:09;;;;;;;2.20;1.40;;;16.90;99.90;;;;;;5016876;28;20565;-76
2022/07/11 02:49:35;;;;;;;5.13;2.00;;;16.90;99.90;;;;;;5034516;28;20177;-77
2022/07/11 02:52:00;;;;;;;2.23;1.53;;;17.00;99.90;;;;;;5016638;28;20211;-76
2022/07/11 02:54:26;;;;;;;4.30;1.60;;;17.00;99.90;;;;;;5016575;28;20192;-76
2022/07/11 02:56:51;;;;;;;5.93;1.83;;;17.00;99.90;;;;;;5034852;28;20180;-76
2022/07/11 02:59:17;;;;;;;9.20;1.90;;;17.00;99.90;;;;;;5034512;28;20239;-77
2022/07/11 03:01:42;;;;;;;4.23;1.90;;;17.00;99.90;;;;;;5016498;28;20737;-76
2022/07/11 03:04:09;;;;;;;5.50;1.87;;;17.00;99.90;;;;;;5016394;28;20194;-76
2022/07/11 03:06:35;;;;;;;2.87;1.50;;;17.00;99.90;;;;;;5034181;28;20175;-76
2022/07/11 03:09:00;;;;;;;2.57;1.80;;;17.00;99.90;;;;;;5034139;28;20696;-76
2022/07/11 03:11:26;;;;;;;3.37;1.60;;;17.10;99.90;;;;;;5034098;28;20172;-77
2022/07/11 03:13:51;;;;;;;4.90;1.80;;;17.00;99.90;;;;;;5033917;28;20690;-76
2022/07/11 03:16:17;;;;;;;4.67;2.10;;;17.10;99.90;;;;;;5016177;28;20176;-76
2022/07/11 03:18:43;;;;;;;5.27;2.13;;;17.00;99.90;;;;;;5033977;28;20566;-76
2022/07/11 03:21:08;;;;;;;2.87;1.80;;;17.10;99.90;;;;;;5033956;28;20172;-77
2022/07/11 03:23:34;;;;;;;5.23;2.03;;;17.10;99.90;;;;;;5033708;28;20176;-77
2022/07/11 03:26:00;;;;;;;4.53;1.83;;;17.10;99.90;;;;;;5016081;28;20184;-76
2022/07/11 03:28:26;;;;;;;3.47;1.90;;;17.10;99.90;;;;;;5033684;28;20172;-76
2022/07/11 03:30:52;;;;;;;3.30;2.10;;;17.10;99.90;;;;;;5033824;28;20230;-76
2022/07/11 03:33:17;;;;;;;5.30;2.03;;;17.10;99.90;;;;;;5033407;28;20257;-75
2022/07/11 03:35:43;;;;;;;5.97;1.87;;;17.10;99.90;;;;;;5015863;28;20164;-76
2022/07/11 03:38:11;;;;;;;2.30;1.80;;;17.10;99.90;;;;;;5033604;28;20548;-77
2022/07/11 03:40:37;;;;;;;3.40;1.60;;;17.10;99.90;;;;;;5033961;28;20176;-77
2022/07/11 03:43:03;;;;;;;4.87;1.57;;;17.10;99.90;;;;;;5015729;28;20176;-77
2022/07/11 03:45:28;;;;;;;1.80;1.60;;;17.10;99.90;;;;;;5033337;28;20270;-76
2022/07/11 03:47:54;;;;;;;5.57;1.90;;;17.10;99.90;;;;;;5033376;28;20208;-76
2022/07/11 03:50:20;;;;;;;5.43;2.00;;;17.10;99.90;;;;;;5033328;28;20176;-76
2022/07/11 03:52:46;;;;;;;4.20;2.00;;;17.10;99.90;;;;;;5033203;28;20195;-76
2022/07/11 03:55:11;;;;;;;6.10;2.00;;;17.10;99.90;;;;;;5015576;28;20200;-76
2022/07/11 03:57:37;;;;;;;2.90;1.40;;;17.10;99.90;;;;;;5033290;28;20638;-76
2022/07/11 04:00:05;;;;;;;2.07;1.30;;;17.00;99.90;;;;;;5033308;28;20169;-77
2022/07/11 04:02:31;;;;;;;4.03;1.40;;;17.00;99.90;;;;;;5033471;28;20651;-76
2022/07/11 04:04:57;;;;;;;2.70;1.70;;;17.00;99.90;;;;;;5033280;28;20697;-78
2022/07/11 04:07:22;;;;;;;2.67;1.50;;;17.00;99.90;;;;;;5033231;28;20176;-76
2022/07/11 04:09:48;;;;;;;5.43;1.33;;;17.00;99.90;;;;;;5033073;28;20704;-76
2022/07/11 04:12:14;;;;;;;1.67;1.10;;;16.90;99.90;;;;;;5033048;28;20670;-77
2022/07/11 04:14:39;;;;;;;2.73;1.07;;;17.00;99.90;;;;;;5032924;28;20187;-76
2022/07/11 04:17:05;;;;;;;1.23;1.00;;;17.00;99.90;;;;;;5015204;28;20194;-76
2022/07/11 04:19:30;;;;;;;2.13;1.00;;;17.00;99.90;;;;;;5015400;28;20169;-77
2022/07/11 04:21:56;;;;;;;2.30;1.00;;;17.00;99.90;;;;;;5015216;28;20179;-76
2022/07/11 04:24:22;;;;;;;0.70;0.67;;;17.00;99.90;;;;;;5015453;28;20196;-76
2022/07/11 04:26:48;;;;;;;3.53;0.90;;;17.00;99.90;;;;;;5032891;28;20259;-76
2022/07/11 04:29:13;;;;;;;1.27;0.73;;;17.00;99.90;;;;;;5032904;28;20570;-76
2022/07/11 04:31:39;;;;;;;0.93;0.63;;;17.00;99.90;;;;;;5032835;28;20172;-76
2022/07/11 04:34:04;;;;;;;2.67;0.90;;;17.00;99.90;;;;;;5032670;28;20712;-76
2022/07/11 04:36:30;;;;;;;3.93;0.90;;;17.00;99.90;;;;;;5032842;28;20578;-75
2022/07/11 04:38:55;;;;;;;1.03;0.77;;;17.10;99.90;;;;;;5032759;28;20597;-76
2022/07/11 04:41:21;;;;;;;1.90;1.00;;;17.00;99.90;;;;;;5015063;28;20650;-77
2022/07/11 04:43:46;;;;;;;2.17;0.80;;;17.00;99.90;;;;;;5032653;28;20200;-76
2022/07/11 04:46:13;;;;;;;3.63;1.00;;;17.10;99.90;;;;;;5032729;28;20177;-75
2022/07/11 04:48:38;;;;;;;4.73;1.17;;;17.20;99.90;;;;;;5032760;28;20173;-76
2022/07/11 04:51:08;;;;;;;0.90;0.90;;;17.10;99.90;;;;;;5015057;28;20184;-76
2022/07/11 04:53:34;;;;;;;1.70;0.77;;;17.10;99.90;;;;;;5032812;28;20192;-77
2022/07/11 04:55:59;;;;;;;1.27;1.00;;;17.20;99.90;;;;;;5036121;28;20217;-75
2022/07/11 04:58:26;;;;;;;2.20;1.03;;;17.10;99.90;;;;;;5018813;28;20212;-76
2022/07/11 05:00:51;;;;;;;1.00;0.90;;;17.10;99.90;;;;;;5036409;28;20168;-77
2022/07/11 05:03:19;;;;;;;1.50;0.80;;;17.10;99.90;;;;;;5036316;28;20179;-76
2022/07/11 05:05:44;;;;;;;1.67;0.90;;;17.10;99.90;;;;;;5036650;28;20168;-76
2022/07/11 05:08:10;;;;;;;2.00;0.70;;;17.10;99.90;;;;;;5036554;28;20696;-78
2022/07/11 05:10:36;;;;;;;1.07;0.90;;;17.10;99.90;;;;;;5036295;28;20180;-77
2022/07/11 05:13:02;;;;;;;1.50;0.90;;;17.10;99.90;;;;;;5036140;28;20200;-76
2022/07/11 05:15:28;;;;;;;2.97;1.30;;;17.10;99.90;;;;;;5036120;28;20272;-77
2022/07/11 05:17:53;;;;;;;1.53;1.37;;;17.10;99.90;;;;;;5018274;28;20219;-74
2022/07/11 05:20:19;;;;;;;1.60;1.50;;;17.10;99.90;;;;;;5036114;28;20168;-76
2022/07/11 05:22:45;;;;;;;1.50;1.10;;;17.10;99.90;;;;;;5018288;28;20180;-75
2022/07/11 05:25:10;;;;;;;1.73;0.90;;;17.10;99.90;;;;;;5018219;28;20193;-76
2022/07/11 05:27:36;;;;;;;0.87;0.87;;;17.10;99.90;;;;;;5018378;28;20168;-76
2022/07/11 05:30:02;;;;;;;1.83;1.20;;;17.10;99.90;;;;;;5035883;28;20179;-76
2022/07/11 05:32:27;;;;;;;1.20;0.90;;;17.10;99.90;;;;;;5017998;28;20722;-76
2022/07/11 05:34:56;;;;;;;0.73;0.73;;;17.10;99.90;;;;;;5035720;28;20279;-76
2022/07/11 05:37:22;;;;;;;0.80;0.67;;;17.10;99.90;;;;;;5018047;28;20179;-77
2022/07/11 05:39:48;;;;;;;1.47;0.80;;;17.10;99.90;;;;;;5035719;28;20180;-76
2022/07/11 05:42:15;;;;;;;1.17;0.90;;;17.10;99.90;;;;;;5035960;28;20223;-76
2022/07/11 05:44:40;;;;;;;1.87;1.10;;;17.10;99.90;;;;;;5035780;28;20755;-76
2022/07/11 05:47:06;;;;;;;1.03;0.70;;;17.20;99.90;;;;;;5017818;28;20270;-76
2022/07/11 05:49:32;;;;;;;1.67;1.00;;;17.20;99.90;;;;;;5035499;28;20226;-76
2022/07/11 05:51:57;;;;;;;0.93;0.77;;;17.20;99.90;;;;;;5017660;28;20188;-76
2022/07/11 05:54:23;;;;;;;1.20;1.10;;;17.10;99.90;;;;;;5017559;28;20608;-74
2022/07/11 05:56:48;;;;;;;2.77;1.20;;;17.20;99.90;;;;;;5017646;28;20168;-76
2022/07/11 05:59:14;;;;;;;1.60;1.30;;;17.10;99.90;;;;;;5035529;28;20191;-76
2022/07/11 06:01:40;;;;;;;3.60;1.60;;;17.20;99.90;;;;;;5035238;28;20168;-76
2022/07/11 06:04:06;;;;;;;2.13;1.50;;;17.20;99.90;;;;;;5035151;28;20200;-76
2022/07/11 06:06:31;;;;;;;2.93;1.37;;;17.10;99.90;;;;;;5035041;28;20181;-76
2022/07/11 06:08:57;;;;;;;2.30;1.27;;;17.20;99.90;;;;;;5027309;23;20242;-76
2022/07/11 06:11:22;;;;;;;1.50;1.27;;;17.20;99.90;;;;;;5037031;28;20270;-76
2022/07/11 06:13:49;;;;;;;1.50;0.97;;;17.20;99.90;;;;;;5055142;28;20226;-76
2022/07/11 06:16:15;;;;;;;1.37;1.00;;;17.20;99.90;;;;;;5037039;28;20183;-76
2022/07/11 06:18:41;;;;;;;2.23;1.00;;;17.20;99.90;;;;;;5036991;28;20167;-76
2022/07/11 06:21:07;;;;;;;1.37;0.80;;;17.20;99.90;;;;;;5054750;28;20680;-76
2022/07/11 06:23:34;;;;;;;0.80;0.80;;;17.10;99.90;;;;;;5054798;28;20179;-76
2022/07/11 06:26:01;;;;;;;1.30;0.87;;;17.20;99.90;;;;;;5054757;28;20262;-75
2022/07/11 06:28:26;;;;;;;1.57;0.70;;;17.20;99.90;;;;;;5055001;28;20175;-76
2022/07/11 06:30:52;;;;;;;1.20;0.70;;;17.10;99.90;;;;;;5054630;28;20187;-76
2022/07/11 06:33:19;;;;;;;1.80;1.40;;;17.20;99.90;;;;;;5054848;28;20199;-76
2022/07/11 06:35:46;;;;;;;3.13;1.70;;;17.20;99.90;;;;;;5036757;28;20171;-76
2022/07/11 06:38:12;;;;;;;3.53;2.30;;;17.20;99.90;;;;;;5054493;28;20172;-76
2022/07/11 06:40:38;;;;;;;3.73;3.07;;;17.20;99.90;;;;;;5054435;28;20187;-76
2022/07/11 06:43:05;;;;;;;4.57;2.90;;;17.20;99.90;;;;;;5054415;28;20542;-76
2022/07/11 06:45:31;;;;;;;5.53;3.70;;;17.20;99.90;;;;;;5036582;28;20179;-76
2022/07/11 06:47:56;;;;;;;11.33;4.17;;;17.20;99.90;;;;;;5036507;28;20262;-76
2022/07/11 06:50:22;;;;;;;5.17;4.30;;;17.20;99.90;;;;;;5036316;28;20195;-76
2022/07/11 06:52:48;;;;;;;5.67;4.10;;;17.20;99.90;;;;;;5036308;28;20686;-76
2022/07/11 06:55:14;;;;;;;5.13;3.93;;;17.20;99.90;;;;;;5054317;28;20168;-76
2022/07/11 06:57:39;;;;;;;4.90;3.30;;;17.30;99.90;;;;;;5054158;28;20233;-76
2022/07/11 07:00:07;;;;;;;3.73;3.17;;;17.30;99.90;;;;;;5054166;28;20188;-76
2022/07/11 07:02:32;;;;;;;6.13;3.30;;;17.30;99.90;;;;;;5036202;28;20744;-76
2022/07/11 07:04:58;;;;;;;3.40;3.10;;;17.20;99.90;;;;;;5054001;28;20254;-76
2022/07/11 07:07:25;;;;;;;5.20;3.80;;;17.30;99.90;;;;;;5053976;28;20206;-76
2022/07/11 07:09:51;;;;;;;4.33;3.93;;;17.30;99.90;;;;;;5053731;28;20211;-76
2022/07/11 07:12:16;;;;;;;3.40;3.10;;;17.30;99.90;;;;;;5054103;28;20195;-76
2022/07/11 07:14:42;;;;;;;6.13;3.90;;;17.30;99.90;;;;;;5054058;28;20569;-77
2022/07/11 07:17:07;;;;;;;4.00;2.87;;;17.20;99.90;;;;;;5053701;28;20623;-76
2022/07/11 07:19:33;;;;;;;9.20;2.80;;;17.30;99.90;;;;;;5052632;28;20203;-76
2022/07/11 07:21:58;;;;;;;4.23;2.83;;;17.20;99.90;;;;;;5053933;28;20168;-76
2022/07/11 07:24:24;;;;;;;3.47;3.17;;;17.20;99.90;;;;;;5053603;28;20175;-76
2022/07/11 07:26:49;;;;;;;4.40;2.80;;;17.20;99.90;;;;;;5035639;28;20168;-76
2022/07/11 07:29:15;;;;;;;6.60;3.20;;;17.30;99.90;;;;;;5053447;28;20285;-76
2022/07/11 07:31:41;;;;;;;4.63;2.93;;;17.30;99.90;;;;;;5035646;28;20545;-76
2022/07/11 07:34:08;;;;;;;5.00;2.70;;;17.20;99.90;;;;;;5053430;28;20673;-76
2022/07/11 07:36:33;;;;;;;4.57;3.17;;;17.30;99.90;;;;;;5035539;28;20178;-76
2022/07/11 07:38:59;;;;;;;6.03;2.97;;;17.30;99.90;;;;;;5053283;28;20167;-76
2022/07/11 07:41:25;;;;;;;4.20;3.20;;;17.20;99.90;;;;;;5053673;28;20175;-76
2022/07/11 07:43:51;;;;;;;4.33;3.23;;;17.20;99.90;;;;;;5053223;28;20214;-76
2022/07/11 07:46:17;;;;;;;5.03;3.47;;;17.30;99.90;;;;;;5035404;28;20266;-76
2022/07/11 07:48:43;;;;;;;4.13;3.47;;;17.30;99.90;;;;;;5053229;28;20262;-77
2022/07/11 07:51:08;;;;;;;5.67;3.50;;;17.40;99.90;;;;;;5035190;28;20206;-76
2022/07/11 07:53:34;;;;;;;4.53;3.80;;;17.40;99.90;;;;;;5053043;28;20195;-76
2022/07/11 07:56:00;;;;;;;3.93;3.17;;;17.50;99.90;;;;;;5053113;28;20167;-75
2022/07/11 07:58:26;;;;;;;5.47;3.57;;;17.60;99.90;;;;;;5053156;28;20176;-76
2022/07/11 08:03:35;;;;;;;4.90;3.03;;;17.80;99.90;;;;;;5053044;28;20210;-76
2022/07/11 08:06:01;;;;;;;8.13;3.70;;;17.90;99.90;;;;;;5053147;28;20179;-76
2022/07/11 08:08:26;;;;;;;3.50;3.20;;;18.00;99.90;;;;;;5053031;28;20217;-76
2022/07/11 08:10:52;;;;;;;4.77;3.70;;;18.00;99.90;;;;;;5034821;28;20356;-76
2022/07/11 08:13:19;;;;;;;5.20;3.40;;;18.10;99.90;;;;;;5052793;28;20233;-76
2022/07/11 08:15:45;;;;;;;3.73;3.33;;;18.10;99.90;;;;;;5052875;28;20646;-76
2022/07/11 08:18:11;;;;;;;6.10;3.90;;;18.20;99.90;;;;;;5052833;28;20172;-76
2022/07/11 08:20:37;;;;;;;7.40;3.90;;;18.30;99.90;;;;;;5034826;28;20662;-77
2022/07/11 08:23:06;;;;;;;3.57;3.27;;;18.20;99.90;;;;;;5034921;28;20180;-76
2022/07/11 08:25:32;;;;;;;4.33;2.97;;;18.30;99.90;;;;;;5052756;28;20664;-76
2022/07/11 08:27:58;;;;;;;6.63;2.90;;;18.30;99.90;;;;;;5034908;28;20266;-76
2022/07/11 08:30:25;;;;;;;4.27;3.27;;;18.30;99.90;;;;;;5054975;28;20256;-76
2022/07/11 08:32:51;;;;;;;6.13;4.23;;;18.40;99.90;;;;;;5056832;28;20612;-77
2022/07/11 08:35:16;;;;;;;5.90;5.03;;;18.30;99.90;;;;;;5056882;28;20262;-77
2022/07/11 08:37:42;;;;;;;8.80;6.17;;;18.40;99.90;;;;;;5056811;28;20186;-76
2022/07/11 08:40:09;;;;;;;7.87;6.67;;;18.50;99.90;;;;;;5056703;28;20607;-77
2022/07/11 08:42:41;;;;;;;7.93;6.40;;;18.50;99.90;;;;;;5038822;28;20171;-76
2022/07/11 08:45:12;;;;;;;8.83;6.63;;;18.40;99.90;;;;;;5038739;28;20180;-76
2022/07/11 08:47:39;;;;;;;8.33;5.73;;;18.40;99.90;;;;;;5056697;28;20235;-76
2022/07/11 08:50:05;;;;;;;9.07;6.83;;;18.40;99.90;;;;;;5056546;28;20207;-76
2022/07/11 08:52:32;;;;;;;11.00;7.17;;;18.40;99.90;;;;;;5038487;28;20629;-77
2022/07/11 08:54:58;;;;;;;10.63;7.27;;;18.40;99.90;;;;;;5056464;28;20176;-76
2022/07/11 08:57:24;;;;;;;10.80;6.70;;;18.40;99.90;;;;;;5038581;28;20263;-77
2022/07/11 08:59:54;;;;;;;5.67;5.10;;;18.50;99.90;;;;;;5056527;28;20662;-76
2022/07/11 09:02:21;;;;;;;7.77;4.50;;;18.50;99.90;;;;;;5038541;28;20175;-76
2022/07/11 09:04:46;;;;;;;4.43;4.03;;;18.40;99.90;;;;;;5056304;28;20183;-76
2022/07/11 09:07:12;;;;;;;5.80;4.10;;;18.50;99.90;;;;;;5055982;28;20596;-76
2022/07/11 09:09:38;;;;;;;7.20;4.33;;;18.40;99.90;;;;;;5055338;28;20242;-77
2022/07/11 09:12:14;;;;;;;5.17;4.23;;;18.50;99.90;;;;;;5037580;28;20183;-76
2022/07/11 09:14:40;;;;;;;5.93;4.83;;;18.50;99.90;;;;;;5037760;28;20164;-77
2022/07/11 09:17:06;;;;;;;5.77;5.20;;;18.50;99.90;;;;;;5055983;28;20164;-77
2022/07/11 09:19:36;;;;;;;7.13;5.27;;;18.60;99.90;;;;;;5056143;28;20215;-76
2022/07/11 09:25:22;;;;;;;7.57;6.27;;;18.60;99.90;;;;;;5056375;28;20229;-77
2022/07/11 09:27:52;;;;;;;10.83;9.40;;;18.80;99.90;;;;;;5055909;28;20227;-76
2022/07/11 09:30:28;;;;;;;11.30;8.27;;;18.90;99.90;;;;;;5055937;28;20195;-79
2022/07/11 09:33:05;;;;;;;10.33;9.27;;;18.90;99.90;;;;;;5055986;28;20219;-77
2022/07/11 09:35:37;;;;;;;8.37;6.33;;;19.10;99.90;;;;;;5037891;28;20171;-76
2022/07/11 09:38:04;;;;;;;8.40;6.37;;;19.10;99.90;;;;;;5056207;28;20183;-78
2022/07/11 09:40:30;;;;;;;8.57;6.10;;;19.10;99.90;;;;;;5037424;28;20295;-76
2022/07/11 09:42:57;;;;;;;6.80;6.07;;;19.10;99.90;;;;;;5055064;28;20515;-76
2022/07/11 09:45:25;;;;;;;6.97;6.10;;;19.10;99.90;;;;;;5055684;28;20176;-77
2022/07/11 09:47:53;;;;;;;5.87;4.90;;;19.20;99.90;;;;;;5055955;28;20350;-76
2022/07/11 09:50:23;;;;;;;6.67;5.83;;;19.10;99.90;;;;;;5055432;28;20187;-77
2022/07/11 09:53:01;;;;;;;5.27;4.77;;;19.10;99.90;;;;;;5055386;28;20217;-76
2022/07/11 09:55:28;;;;;;;6.40;5.60;;;19.00;99.90;;;;;;5037496;28;20179;-77
2022/07/11 09:57:54;;;;;;;8.00;5.20;;;19.20;99.90;;;;;;5055589;28;20172;-77
2022/07/11 10:00:19;;;;;;;5.53;4.83;;;19.20;99.90;;;;;;5037338;28;20609;-76
2022/07/11 10:02:45;;;;;;;7.23;3.83;;;19.30;99.90;;;;;;5055214;28;20172;-76
2022/07/11 10:05:11;;;;;;;3.93;3.60;;;19.20;99.90;;;;;;5055431;28;20183;-77
2022/07/11 10:07:36;;;;;;;3.93;3.03;;;19.30;99.90;;;;;;5037272;28;20701;-77
2022/07/11 10:10:04;;;;;;;3.73;3.33;;;19.20;99.90;;;;;;5054945;28;20587;-77
2022/07/11 10:12:32;;;;;;;3.93;3.53;;;19.30;99.90;;;;;;5037088;28;20203;-77
2022/07/11 10:15:09;;;;;;;3.83;3.27;;;19.40;99.90;;;;;;5054995;28;20163;-77
2022/07/11 10:17:44;;;;;;;3.37;2.97;;;19.40;99.90;;;;;;5055269;28;20156;-77
2022/07/11 10:20:47;;;;;;;2.90;2.53;;;19.50;99.90;;;;;;5037332;28;20202;-77
2022/07/11 10:23:31;;;;;;;3.63;2.50;;;19.50;99.90;;;;;;5054864;28;20252;-77
2022/07/11 10:26:06;;;;;;;3.03;2.67;;;19.50;99.90;;;;;;5036886;28;20560;-77
2022/07/11 10:28:35;;;;;;;4.80;2.53;;;19.60;99.90;;;;;;5037013;28;20168;-77
2022/07/11 10:31:01;;;;;;;2.97;2.57;;;19.60;99.90;;;;;;5054603;28;20245;-77
2022/07/11 10:33:28;;;;;;;3.60;2.57;;;19.70;99.90;;;;;;5054556;28;20199;-77
2022/07/11 10:35:54;;;;;;;3.13;2.70;;;19.70;99.90;;;;;;5036757;28;20214;-76
2022/07/11 10:38:21;;;;;;;5.03;3.53;;;19.80;99.90;;;;;;5054560;28;20168;-77
2022/07/11 10:40:52;;;;;;;4.60;4.20;;;19.90;99.90;;;;;;5054436;28;20188;-77
2022/07/11 10:43:40;;;;;;;8.23;7.33;;;20.00;99.90;;;;;;5054767;28;20618;-76
2022/07/11 10:46:06;;;;;;;11.30;10.17;;;20.10;99.90;;;;;;5036540;28;20226;-76
2022/07/11 10:48:53;;;;;;;11.17;10.07;;;20.10;99.90;;;;;;5036737;28;20270;-77
2022/07/11 10:51:36;;;;;;;11.63;9.53;;;20.00;99.90;;;;;;5054251;28;20221;-77
2022/07/11 10:54:32;;;;;;;9.53;8.50;;;20.10;99.90;;;;;;5054168;28;20223;-76
2022/07/11 10:57:13;;;;;;;9.03;6.83;;;20.20;99.90;;;;;;5040509;28;20191;-77
2022/07/11 11:00:12;;;;;;;6.33;5.10;;;20.30;99.90;;;;;;5036191;28;20257;-77
2022/07/11 11:03:01;;;;;;;6.27;5.17;;;20.30;99.90;;;;;;5011010;28;20191;-77
2022/07/11 11:05:48;;;;;;;4.50;4.10;;;20.20;99.90;;;;;;5054066;28;20211;-77
2022/07/11 11:08:32;;;;;;;4.83;3.97;;;20.20;99.90;;;;;;5054089;28;20671;-77
2022/07/11 11:10:58;;;;;;;4.60;4.20;;;20.20;99.90;;;;;;5053901;28;20261;-76
2022/07/11 11:13:24;;;;;;;5.27;4.10;;;20.20;99.90;;;;;;5054001;28;20244;-76
2022/07/11 11:15:56;;;;;;;4.27;3.90;;;20.30;99.90;;;;;;5036023;28;20579;-77
2022/07/11 11:18:22;;;;;;;5.67;4.27;;;20.30;99.90;;;;;;5054160;28;20552;-77
2022/07/11 11:21:09;;;;;;;5.10;4.40;;;20.40;99.90;;;;;;5053911;28;20191;-76
2022/07/11 11:23:40;;;;;;;4.37;3.47;;;20.30;99.90;;;;;;5035854;28;20176;-77
2022/07/11 11:26:07;;;;;;;6.33;3.83;;;20.30;99.90;;;;;;5054102;28;20175;-76
2022/07/11 11:28:34;;;;;;;4.13;2.63;;;20.40;99.90;;;;;;5053977;28;20172;-77
2022/07/11 11:31:02;;;;;;;4.07;3.03;;;20.30;99.90;;;;;;5053758;28;20191;-77
2022/07/11 11:33:30;;;;;;;2.87;2.53;;;20.30;99.90;;;;;;5053893;28;20191;-77
2022/07/11 11:36:17;;;;;;;3.17;2.70;;;20.30;99.90;;;;;;5036199;28;20539;-77
2022/07/11 11:38:45;;;;;;;2.90;2.40;;;20.20;99.90;;;;;;5036515;28;20574;-77
2022/07/11 11:41:14;;;;;;;2.53;2.33;;;20.20;99.90;;;;;;5053477;28;20275;-77
2022/07/11 11:43:44;;;;;;;5.00;2.20;;;20.20;99.90;;;;;;5035642;28;20218;-77
2022/07/11 11:46:13;;;;;;;2.57;2.37;;;20.20;99.90;;;;;;5053588;28;20152;-77
2022/07/11 11:48:45;;;;;;;2.77;2.43;;;20.30;99.90;;;;;;5053461;28;20259;-77
2022/07/11 11:51:12;;;;;;;2.23;1.90;;;20.30;99.90;;;;;;5035420;28;20191;-77
2022/07/11 11:53:41;;;;;;;2.43;2.23;;;20.40;99.90;;;;;;5035476;28;20195;-76
2022/07/11 11:56:32;;;;;;;3.97;2.10;;;20.40;99.90;;;;;;5053282;28;20210;-76
2022/07/11 11:58:59;;;;;;;1.87;1.27;;;20.50;99.90;;;;;;5053345;28;20145;-77
2022/07/11 12:01:27;;;;;;;2.60;1.30;;;20.60;99.90;;;;;;5053161;28;20208;-76
2022/07/11 12:03:55;;;;;;;4.13;1.10;;;20.60;99.90;;;;;;5053226;28;20229;-76
2022/07/11 12:06:29;;;;;;;1.10;0.80;;;20.60;99.90;;;;;;5053249;28;20167;-77
2022/07/11 12:09:17;;;;;;;0.80;0.73;;;20.50;99.90;;;;;;5052996;28;20708;-77
2022/07/11 12:11:47;;;;;;;1.47;0.70;;;20.50;99.90;;;;;;5052998;28;20172;-76
2022/07/11 12:14:14;;;;;;;0.70;0.60;;;20.40;99.90;;;;;;5052897;28;20286;-77
2022/07/11 12:16:42;;;;;;;0.80;0.70;;;20.50;99.90;;;;;;5053270;28;20201;-76
2022/07/11 12:19:14;;;;;;;0.93;0.80;;;20.50;99.90;;;;;;5052859;28;20252;-76
2022/07/11 12:21:41;;;;;;;2.50;2.10;;;20.50;99.90;;;;;;5052950;28;20648;-77
2022/07/11 12:24:10;;;;;;;2.50;2.00;;;20.50;99.90;;;;;;5035054;28;20302;-77
2022/07/11 12:26:38;;;;;;;2.30;2.10;;;20.60;99.90;;;;;;5052889;28;20172;-76
2022/07/11 12:29:22;;;;;;;3.60;3.00;;;20.70;99.90;;;;;;5052949;28;20175;-76
2022/07/11 12:31:53;;;;;;;4.30;1.87;;;20.80;99.90;;;;;;5052789;28;20148;-76
2022/07/11 12:34:21;;;;;;;2.20;1.60;;;20.80;99.90;;;;;;5052708;28;20241;-77
2022/07/11 12:36:47;;;;;;;3.93;1.80;;;20.80;99.90;;;;;;5052778;28;20172;-76
2022/07/11 12:39:27;;;;;;;2.47;1.97;;;20.80;99.90;;;;;;5052686;28;20195;-77
2022/07/11 12:41:54;;;;;;;3.30;2.63;;;20.80;99.90;;;;;;5052647;28;20175;-76
2022/07/11 12:45:07;;;;;;;3.70;2.73;;;20.80;99.90;;;;;;5034824;28;20266;-77
2022/07/11 12:47:24;;;;;;;3.30;2.23;;;20.80;99.90;;;;;;5050441;28;20201;-77
2022/07/11 12:49:50;;;;;;;3.23;2.53;;;20.90;99.90;;;;;;5052609;28;20226;-77
2022/07/11 12:52:19;;;;;;;3.67;2.57;;;20.90;99.90;;;;;;5052769;28;20196;-77
2022/07/11 12:54:45;;;;;;;2.67;2.40;;;21.00;99.90;;;;;;5052822;28;20171;-76
2022/07/11 12:57:20;;;;;;;3.60;3.10;;;21.00;99.90;;;;;;5052815;28;20176;-76